createdAt,value
2018-12-25T00:03:27.997Z,29.07
2018-12-25T00:08:36.293Z,29.27
2018-12-25T00:13:42.815Z,35.63
2018-12-25T00:18:48.015Z,32.17
2018-12-25T00:23:53.731Z,27.57
2018-12-25T00:28:58.932Z,25.70
2018-12-25T00:34:06.488Z,24.87
2018-12-25T00:39:11.654Z,24.70
2018-12-25T00:44:27.295Z,28.97
2018-12-25T00:49:32.275Z,29.83
2018-12-25T00:54:37.500Z,31.03
2018-12-25T00:59:42.603Z,32.30
2018-12-25T01:04:51.189Z,26.90
2018-12-25T01:09:56.323Z,28.17
2018-12-25T01:15:06.573Z,30.97
2018-12-25T01:20:13.068Z,27.93
2018-12-25T01:25:18.257Z,29.20
2018-12-25T01:30:23.427Z,31.13
2018-12-25T01:35:28.619Z,31.53
2018-12-25T01:40:35.672Z,29.27
2018-12-25T01:45:40.949Z,25.87
2018-12-25T01:50:46.091Z,28.33
2018-12-25T01:55:51.364Z,29.37
2018-12-25T02:00:56.561Z,30.00
2018-12-25T02:06:01.881Z,28.13
2018-12-25T02:11:07.122Z,25.63
2018-12-25T02:16:12.326Z,25.83
2018-12-25T02:21:17.372Z,30.53
2018-12-25T02:26:22.588Z,31.17
2018-12-25T02:31:27.960Z,30.13
2018-12-25T02:36:33.159Z,30.87
2018-12-25T02:41:38.756Z,26.67
2018-12-25T02:46:44.637Z,25.33
2018-12-25T02:51:49.790Z,23.57
2018-12-25T02:56:55.105Z,21.77
2018-12-25T03:02:00.345Z,21.03
2018-12-25T03:07:05.765Z,22.70
2018-12-25T03:12:11.637Z,28.17
2018-12-25T03:17:18.034Z,29.13
2018-12-25T03:22:25.424Z,30.50
2018-12-25T03:27:31.903Z,29.03
2018-12-25T03:32:37.354Z,31.50
2018-12-25T03:37:42.509Z,34.03
2018-12-25T03:42:47.959Z,33.63
2018-12-25T03:47:58.733Z,40.63
2018-12-25T03:53:03.894Z,32.73
2018-12-25T03:58:10.429Z,30.53
2018-12-25T04:03:15.756Z,42.67
2018-12-25T04:08:20.936Z,41.87
2018-12-25T04:13:26.939Z,41.80
2018-12-25T04:18:32.173Z,38.50
2018-12-25T04:23:37.767Z,38.97
2018-12-25T04:28:43.275Z,39.53
2018-12-25T04:33:48.707Z,34.70
2018-12-25T04:38:54.225Z,34.63
2018-12-25T04:43:59.355Z,37.57
2018-12-25T04:49:05.454Z,38.00
2018-12-25T04:54:10.875Z,43.07
2018-12-25T04:59:16.193Z,39.30
2018-12-25T05:04:27.076Z,33.03
2018-12-25T05:09:32.239Z,33.90
2018-12-25T05:14:37.423Z,38.67
2018-12-25T05:19:42.641Z,32.70
2018-12-25T05:24:47.875Z,37.40
2018-12-25T05:29:53.407Z,38.67
2018-12-25T05:34:58.538Z,37.40
2018-12-25T05:40:03.901Z,39.10
2018-12-25T05:45:09.078Z,38.73
2018-12-25T05:50:16.952Z,31.37
2018-12-25T05:55:22.614Z,29.67
2018-12-25T06:00:27.833Z,33.50
2018-12-25T06:05:33.088Z,35.23
2018-12-25T06:10:38.358Z,42.57
2018-12-25T06:15:56.655Z,46.60
2018-12-25T06:21:02.957Z,39.57
2018-12-25T06:26:08.561Z,34.53
2018-12-25T06:31:14.016Z,36.20
2018-12-25T06:36:23.139Z,29.60
2018-12-25T06:41:28.514Z,28.50
2018-12-25T06:46:34.073Z,30.90
2018-12-25T06:51:42.678Z,30.87
2018-12-25T06:56:51.237Z,26.73
2018-12-25T07:01:59.788Z,30.47
2018-12-25T07:07:05.382Z,31.93
2018-12-25T07:12:11.078Z,29.23
2018-12-25T07:17:17.244Z,26.80
2018-12-25T07:22:22.330Z,25.23
2018-12-25T07:27:27.566Z,28.13
2018-12-25T07:32:32.757Z,32.57
2018-12-25T07:37:37.885Z,29.73
2018-12-25T07:42:42.977Z,26.37
2018-12-25T07:47:50.543Z,31.17
2018-12-25T07:52:55.725Z,34.03
2018-12-25T07:58:00.915Z,31.20
2018-12-25T08:03:06.173Z,30.10
2018-12-25T08:08:12.586Z,31.53
2018-12-25T08:13:17.927Z,31.30
2018-12-25T08:18:23.221Z,29.50
2018-12-25T08:23:29.995Z,30.80
2018-12-25T08:28:35.265Z,26.70
2018-12-25T08:33:41.703Z,26.37
2018-12-25T08:38:47.261Z,25.57
2018-12-25T08:43:52.795Z,24.50
2018-12-25T08:48:57.965Z,26.70
2018-12-25T08:54:05.043Z,25.97
2018-12-25T08:59:10.263Z,24.53
2018-12-25T09:04:15.651Z,29.37
2018-12-25T09:09:20.831Z,32.00
2018-12-25T09:14:26.640Z,27.17
2018-12-25T09:19:31.766Z,30.07
2018-12-25T09:24:37.033Z,29.63
2018-12-25T09:29:44.159Z,30.03
2018-12-25T09:34:52.348Z,29.30
2018-12-25T09:39:57.566Z,30.03
2018-12-25T09:45:02.583Z,28.97
2018-12-25T09:50:08.133Z,28.17
2018-12-25T09:55:13.644Z,25.37
2018-12-25T10:00:19.129Z,24.97
2018-12-25T10:05:24.390Z,20.80
2018-12-25T10:10:35.397Z,22.07
2018-12-25T10:15:40.838Z,19.03
2018-12-25T10:20:46.069Z,23.27
2018-12-25T10:25:51.639Z,20.93
2018-12-25T10:30:56.917Z,22.77
2018-12-25T10:36:02.441Z,22.47
2018-12-25T10:41:07.826Z,23.43
2018-12-25T10:46:12.929Z,20.40
2018-12-25T10:51:18.617Z,18.53
2018-12-25T10:56:24.141Z,19.17
2018-12-25T11:01:34.157Z,21.50
2018-12-25T11:06:39.452Z,21.27
2018-12-25T11:11:44.811Z,20.30
2018-12-25T11:16:55.212Z,22.50
2018-12-25T11:22:00.371Z,21.20
2018-12-25T11:27:05.393Z,23.03
2018-12-25T11:32:10.769Z,21.50
2018-12-25T11:37:16.260Z,25.47
2018-12-25T11:42:21.393Z,23.80
2018-12-25T11:47:26.745Z,24.47
2018-12-25T11:52:31.887Z,24.10
2018-12-25T11:57:37.095Z,21.63
2018-12-25T12:02:42.168Z,20.07
2018-12-25T12:07:47.341Z,19.67
2018-12-25T12:12:52.591Z,17.87
2018-12-25T12:17:58.003Z,18.13
2018-12-25T12:23:04.287Z,18.40
2018-12-25T12:28:14.478Z,21.27
2018-12-25T12:33:19.689Z,20.67
2018-12-25T12:38:24.918Z,21.03
2018-12-25T12:43:30.105Z,21.73
2018-12-25T12:48:35.455Z,22.47
2018-12-25T12:53:40.615Z,21.90
2018-12-25T12:58:46.087Z,21.97
2018-12-25T13:03:51.162Z,22.20
2018-12-25T13:08:56.425Z,22.07
2018-12-25T13:14:02.683Z,23.23
2018-12-25T13:19:10.704Z,25.50
2018-12-25T13:24:16.614Z,23.23
2018-12-25T13:29:23.135Z,25.33
2018-12-25T13:34:28.327Z,25.77
2018-12-25T13:39:33.781Z,24.43
2018-12-25T13:44:39.401Z,20.80
2018-12-25T13:49:44.664Z,18.37
2018-12-25T13:54:49.876Z,19.13
2018-12-25T13:59:56.040Z,20.40
2018-12-25T14:05:01.709Z,20.53
2018-12-25T14:10:07.823Z,18.93
2018-12-25T14:15:14.239Z,19.57
2018-12-25T14:20:20.614Z,17.80
2018-12-25T14:25:26.861Z,16.30
2018-12-25T14:30:32.036Z,20.53
2018-12-25T14:35:37.185Z,23.80
2018-12-25T14:40:42.667Z,22.30
2018-12-25T14:45:51.090Z,22.33
2018-12-25T14:50:56.259Z,17.37
2018-12-25T14:56:01.361Z,20.20
2018-12-25T15:01:07.981Z,19.03
2018-12-25T15:06:13.446Z,22.97
2018-12-25T15:11:18.533Z,22.33
2018-12-25T15:16:23.886Z,23.00
2018-12-25T15:21:29.030Z,25.43
2018-12-25T15:26:34.157Z,25.57
2018-12-25T15:31:39.369Z,28.97
2018-12-25T15:36:49.402Z,25.90
2018-12-25T15:41:54.457Z,27.90
2018-12-25T15:46:59.687Z,23.57
2018-12-25T15:52:05.550Z,23.27
2018-12-25T15:57:13.109Z,26.93
2018-12-25T16:02:18.343Z,24.63
2018-12-25T16:07:23.809Z,25.13
2018-12-25T16:12:28.983Z,26.40
2018-12-25T16:17:34.100Z,24.20
2018-12-25T16:22:39.401Z,21.30
2018-12-25T16:27:44.614Z,24.43
2018-12-25T16:32:49.816Z,21.73
2018-12-25T16:37:55.094Z,24.53
2018-12-25T16:43:00.643Z,27.70
2018-12-25T16:48:05.896Z,19.50
2018-12-25T16:53:11.055Z,22.30
2018-12-25T16:58:16.268Z,21.73
2018-12-25T17:03:21.358Z,24.43
2018-12-25T17:08:26.473Z,19.43
2018-12-25T17:13:31.638Z,20.30
2018-12-25T17:18:36.997Z,20.27
2018-12-25T17:23:42.226Z,21.57
2018-12-25T17:28:47.358Z,22.43
2018-12-25T17:33:52.627Z,19.90
2018-12-25T17:38:58.276Z,27.13
2018-12-25T17:44:03.522Z,21.17
2018-12-25T17:49:09.492Z,25.57
2018-12-25T17:54:14.585Z,27.37
2018-12-25T17:59:19.728Z,26.87
2018-12-25T18:04:25.954Z,26.37
2018-12-25T18:09:31.220Z,30.67
2018-12-25T18:14:36.849Z,24.77
2018-12-25T18:19:42.155Z,26.87
2018-12-25T18:24:47.251Z,25.23
2018-12-25T18:29:52.388Z,26.27
2018-12-25T18:34:57.564Z,22.27
2018-12-25T18:40:02.712Z,26.43
2018-12-25T18:45:12.904Z,28.57
2018-12-25T18:50:17.982Z,29.87
2018-12-25T18:55:23.110Z,31.03
2018-12-25T19:00:28.021Z,29.13
2018-12-25T19:05:33.271Z,30.77
2018-12-25T19:10:39.149Z,35.33
2018-12-25T19:15:46.247Z,25.90
2018-12-25T19:20:51.466Z,32.83
2018-12-25T19:25:56.691Z,31.77
2018-12-25T19:31:04.788Z,35.50
2018-12-25T19:36:15.046Z,33.93
2018-12-25T19:41:20.553Z,31.57
2018-12-25T19:46:26.042Z,35.47
2018-12-25T19:51:31.956Z,31.20
2018-12-25T19:56:37.080Z,32.97
2018-12-25T20:01:42.298Z,34.17
2018-12-25T20:07:34.391Z,31.47
2018-12-25T20:13:28.268Z,31.77
2018-12-25T20:19:02.410Z,31.50
2018-12-25T20:25:04.717Z,28.70
2018-12-25T20:30:41.692Z,27.73
2018-12-25T20:36:42.326Z,28.20
2018-12-25T20:42:15.386Z,30.93
2018-12-25T20:48:19.551Z,32.33
2018-12-25T20:54:19.746Z,32.47
2018-12-25T21:00:01.145Z,31.13
2018-12-25T21:05:42.335Z,30.80
2018-12-25T21:11:40.048Z,29.87
2018-12-25T21:17:24.434Z,29.63
2018-12-25T21:23:07.433Z,30.40
2018-12-25T21:28:11.025Z,32.10
2018-12-25T21:33:17.112Z,32.50
2018-12-25T21:38:26.050Z,33.30
2018-12-25T21:43:31.505Z,29.10
2018-12-25T21:48:37.227Z,30.10
2018-12-25T21:53:42.259Z,33.03
2018-12-25T21:58:47.479Z,29.90
2018-12-25T22:03:53.518Z,29.57
2018-12-25T22:08:58.590Z,30.40
2018-12-25T22:14:03.722Z,29.57
2018-12-25T22:19:09.056Z,31.37
2018-12-25T22:24:14.550Z,26.93
2018-12-25T22:29:19.848Z,25.07
2018-12-25T22:34:38.123Z,22.60
2018-12-25T22:39:43.401Z,21.70
2018-12-25T22:44:48.588Z,26.13
2018-12-25T22:49:54.222Z,27.67
2018-12-25T22:54:59.941Z,30.83
2018-12-25T23:00:06.862Z,33.20
2018-12-25T23:05:13.570Z,27.23
2018-12-25T23:10:19.152Z,27.37
2018-12-25T23:15:25.156Z,31.17
2018-12-25T23:20:30.756Z,29.73
2018-12-25T23:25:44.409Z,26.70
2018-12-25T23:30:42.776Z,26.20
2018-12-25T23:35:48.777Z,26.20
2018-12-25T23:40:54.715Z,29.60
2018-12-25T23:46:00.067Z,31.60
2018-12-25T23:51:05.192Z,30.60
2018-12-25T23:56:10.264Z,27.67
